Time;durP1;ratioP1;P1;durP2;ratioP2;P2;SDS_P1;SDS_P2;PMS_P1;PMS_P2;Temp;Humidity;BMP_temperature;BMP_pressure;BME280_temperature;BME280_humidity;BME280_pressure;Samples;Min_cycle;Max_cycle;Signal;HPM_P1;HPM_P2
2021/04/22 00:01:32;;;;;;;17.13;3.35;;;5.50;99.90;;;;;;12388017;28;20429;-80
2021/04/22 00:07:33;;;;;;;19.92;3.90;;;5.50;99.90;;;;;;12388604;28;20092;-80
2021/04/22 00:13:35;;;;;;;17.00;3.03;;;5.40;99.90;;;;;;12399492;28;20058;-80
2021/04/22 00:19:37;;;;;;;20.13;3.53;;;5.30;99.90;;;;;;12386211;28;20139;-80
2021/04/22 00:25:41;;;;;;;23.35;4.38;;;5.40;99.90;;;;;;12380513;28;20047;-80
2021/04/22 00:31:42;;;;;;;12.50;3.10;;;5.40;99.90;;;;;;12390801;28;20043;-80
2021/04/22 00:37:43;;;;;;;22.27;5.10;;;5.30;99.90;;;;;;12399276;28;20058;-80
2021/04/22 00:43:45;;;;;;;19.52;4.05;;;5.30;99.90;;;;;;12396519;28;20425;-80
2021/04/22 00:49:47;;;;;;;17.38;4.30;;;5.40;99.90;;;;;;12388583;28;20054;-80
2021/04/22 00:55:49;;;;;;;14.98;4.07;;;5.30;99.90;;;;;;12389123;28;20113;-80
2021/04/22 01:01:51;;;;;;;15.60;3.72;;;5.40;99.90;;;;;;12389530;28;20070;-80
2021/04/22 01:07:52;;;;;;;19.67;3.83;;;5.20;99.90;;;;;;12388419;28;20046;-80
2021/04/22 01:13:53;;;;;;;15.95;3.47;;;5.40;99.90;;;;;;12388471;28;20104;-79
2021/04/22 01:19:55;;;;;;;13.90;3.20;;;5.40;99.90;;;;;;12397680;28;20062;-80
2021/04/22 01:25:56;;;;;;;18.67;3.72;;;5.30;99.90;;;;;;12398765;28;20100;-80
2021/04/22 01:31:58;;;;;;;18.20;3.60;;;5.40;99.90;;;;;;12391659;28;20129;-80
2021/04/22 01:38:00;;;;;;;13.35;3.20;;;5.30;99.90;;;;;;12393353;28;20061;-80
2021/04/22 01:44:02;;;;;;;14.93;3.45;;;5.30;99.90;;;;;;12398749;28;20104;-79
2021/04/22 01:50:07;;;;;;;15.73;2.95;;;5.50;99.90;;;;;;12396841;28;20125;-80
2021/04/22 01:56:09;;;;;;;18.35;3.80;;;5.40;99.90;;;;;;12398344;28;20049;-80
2021/04/22 02:02:10;;;;;;;13.85;3.05;;;5.30;99.90;;;;;;12392853;28;20092;-80
2021/04/22 02:08:12;;;;;;;16.58;3.33;;;5.40;99.90;;;;;;12397498;28;20050;-80
2021/04/22 02:14:13;;;;;;;13.23;3.42;;;5.30;99.90;;;;;;12394684;28;20054;-80
2021/04/22 02:20:16;;;;;;;21.88;3.00;;;5.40;99.90;;;;;;12407394;28;20140;-80
2021/04/22 02:26:17;;;;;;;17.75;3.00;;;5.40;99.90;;;;;;12420217;28;20093;-81
2021/04/22 02:32:19;;;;;;;11.02;2.65;;;5.30;99.90;;;;;;12398319;28;20049;-82
2021/04/22 02:38:20;;;;;;;16.02;3.30;;;5.30;99.90;;;;;;12404207;28;20050;-81
2021/04/22 02:44:21;;;;;;;15.27;4.15;;;5.30;99.90;;;;;;12418613;28;20041;-81
2021/04/22 02:50:27;;;;;;;18.95;3.30;;;5.30;99.90;;;;;;12393852;28;20081;-80
2021/04/22 02:56:28;;;;;;;20.80;3.58;;;5.30;99.90;;;;;;12388408;28;20433;-81
2021/04/22 03:02:29;;;;;;;16.08;3.55;;;5.30;99.90;;;;;;12394790;28;20045;-80
2021/04/22 03:08:32;;;;;;;18.63;3.33;;;5.30;99.90;;;;;;12386903;28;20042;-81
2021/04/22 03:14:33;;;;;;;15.10;3.50;;;5.30;99.90;;;;;;12386277;28;20579;-80
2021/04/22 03:20:36;;;;;;;15.80;3.20;;;5.30;99.90;;;;;;12389078;28;20091;-81
2021/04/22 03:26:37;;;;;;;20.95;3.38;;;5.30;99.90;;;;;;12406402;28;20046;-80
2021/04/22 03:32:39;;;;;;;13.02;2.90;;;5.20;99.90;;;;;;12391281;28;20176;-81
2021/04/22 03:38:40;;;;;;;13.93;3.20;;;5.20;99.90;;;;;;12390119;28;20058;-80
2021/04/22 03:44:46;;;;;;;19.33;3.28;;;5.20;99.90;;;;;;12392856;28;20748;-80
2021/04/22 03:50:47;;;;;;;13.75;3.00;;;5.10;99.90;;;;;;12410907;28;20084;-80
2021/04/22 03:56:49;;;;;;;15.13;3.47;;;5.30;99.90;;;;;;12392115;28;20071;-80
2021/04/22 04:02:50;;;;;;;13.68;3.20;;;5.20;99.90;;;;;;12397031;28;20558;-81
2021/04/22 04:08:52;;;;;;;15.73;3.22;;;5.10;99.90;;;;;;12393576;28;20054;-81
2021/04/22 04:14:54;;;;;;;12.77;3.15;;;5.20;99.90;;;;;;12393156;28;20100;-81
2021/04/22 04:20:55;;;;;;;24.27;3.03;;;5.20;99.90;;;;;;12392108;28;20134;-81
2021/04/22 04:26:57;;;;;;;18.75;3.10;;;5.40;99.90;;;;;;12398352;28;20056;-81
2021/04/22 04:32:58;;;;;;;9.32;2.78;;;5.30;99.90;;;;;;12394804;28;20081;-80
2021/04/22 04:39:00;;;;;;;16.42;2.72;;;5.30;99.90;;;;;;12393890;28;20081;-80
2021/04/22 04:45:01;;;;;;;14.85;2.70;;;5.30;99.90;;;;;;12390757;28;20085;-80
2021/04/22 04:51:02;;;;;;;12.07;3.30;;;5.40;99.90;;;;;;12386831;28;20042;-81
2021/04/22 04:57:09;;;;;;;17.77;3.55;;;5.40;99.90;;;;;;12379983;28;20453;-82
2021/04/22 05:03:10;;;;;;;17.83;3.40;;;5.30;99.90;;;;;;12386087;28;20147;-81
2021/04/22 05:09:11;;;;;;;16.77;3.70;;;5.40;99.90;;;;;;12382931;28;20057;-81
2021/04/22 05:15:13;;;;;;;21.27;3.90;;;5.30;99.90;;;;;;12384395;28;20203;-81
2021/04/22 05:21:15;;;;;;;22.13;3.42;;;5.30;99.90;;;;;;12383211;28;20161;-81
2021/04/22 05:27:16;;;;;;;17.05;2.90;;;5.40;99.90;;;;;;12390028;28;20050;-81
2021/04/22 05:33:18;;;;;;;16.40;2.97;;;5.50;99.90;;;;;;12384958;28;20470;-82
2021/04/22 05:39:22;;;;;;;17.23;4.07;;;5.60;99.90;;;;;;12386353;28;20057;-81
2021/04/22 05:45:23;;;;;;;18.57;3.27;;;5.70;99.90;;;;;;12386019;28;20042;-81
2021/04/22 05:51:25;;;;;;;17.42;3.47;;;5.70;99.90;;;;;;12387660;28;20034;-81
2021/04/22 05:57:26;;;;;;;14.68;3.33;;;5.80;99.90;;;;;;12389536;28;20477;-81
2021/04/22 06:03:27;;;;;;;16.42;2.90;;;5.90;99.90;;;;;;12397632;28;20083;-82
2021/04/22 06:09:29;;;;;;;20.65;3.65;;;5.90;99.90;;;;;;12407522;28;20074;-81
2021/04/22 06:15:30;;;;;;;25.65;3.88;;;6.10;99.90;;;;;;12401130;28;20513;-81
2021/04/22 06:21:32;;;;;;;15.77;3.30;;;6.30;99.90;;;;;;12390480;28;20172;-81
2021/04/22 06:27:33;;;;;;;15.88;2.90;;;6.40;99.90;;;;;;12404240;28;20042;-82
2021/04/22 06:33:35;;;;;;;20.33;3.42;;;6.50;99.90;;;;;;12402714;28;20073;-81
2021/04/22 06:39:36;;;;;;;16.70;3.35;;;6.70;99.90;;;;;;12397398;28;20129;-81
2021/04/22 06:45:43;;;;;;;16.10;2.67;;;6.70;99.90;;;;;;12397687;28;20489;-81
2021/04/22 06:51:44;;;;;;;16.95;3.05;;;6.80;99.90;;;;;;12398830;28;20046;-81
2021/04/22 06:57:47;;;;;;;19.15;2.80;;;6.70;99.90;;;;;;12397871;28;20062;-81
2021/04/22 07:03:48;;;;;;;17.00;2.88;;;6.70;99.90;;;;;;12387087;28;20110;-81
2021/04/22 07:09:50;;;;;;;10.63;2.58;;;6.90;99.90;;;;;;12396916;28;20058;-82
2021/04/22 07:15:51;;;;;;;18.83;3.33;;;7.00;99.90;;;;;;12387157;28;20718;-81
2021/04/22 07:21:57;;;;;;;13.35;3.38;;;7.20;99.90;;;;;;12390864;28;20545;-82
2021/04/22 07:28:00;;;;;;;12.32;2.83;;;7.10;99.90;;;;;;12389208;28;20058;-81
2021/04/22 07:34:02;;;;;;;13.05;2.47;;;7.10;99.90;;;;;;12385438;28;20077;-81
2021/04/22 07:40:05;;;;;;;10.52;2.25;;;7.20;99.90;;;;;;12394689;28;20058;-82
2021/04/22 07:46:08;;;;;;;13.85;2.97;;;7.20;99.90;;;;;;12410913;28;20104;-83
2021/04/22 07:52:09;;;;;;;15.07;3.00;;;7.20;99.90;;;;;;12396171;28;20129;-81
2021/04/22 07:58:12;;;;;;;13.77;2.75;;;7.20;99.90;;;;;;12398407;28;20077;-82
2021/04/22 08:04:14;;;;;;;14.00;2.65;;;7.30;99.90;;;;;;12394686;28;20092;-82
2021/04/22 08:10:19;;;;;;;12.32;2.13;;;7.40;99.90;;;;;;12397873;28;20042;-81
2021/04/22 08:16:20;;;;;;;;;;;7.40;99.90;;;;;;12392977;28;20061;-82
2021/04/22 08:22:21;;;;;;;16.67;2.58;;;7.30;99.90;;;;;;12389147;28;20037;-82
2021/04/22 08:28:24;;;;;;;15.38;3.03;;;7.80;99.90;;;;;;12391545;28;20115;-82
2021/04/22 08:34:26;;;;;;;17.45;3.20;;;8.10;99.90;;;;;;12385792;28;20072;-81
2021/04/22 08:40:28;;;;;;;12.05;3.20;;;8.10;99.90;;;;;;12388141;28;20104;-81
2021/04/22 08:46:30;;;;;;;11.35;2.58;;;7.80;99.90;;;;;;12390574;28;20042;-81
2021/04/22 08:52:32;;;;;;;20.92;3.03;;;7.90;99.90;;;;;;12404069;28;20058;-81
2021/04/22 08:58:33;;;;;;;12.73;2.63;;;8.30;99.90;;;;;;12380636;28;20065;-82
2021/04/22 09:04:36;;;;;;;11.75;2.72;;;8.90;99.90;;;;;;12384946;28;20499;-82
2021/04/22 09:10:37;;;;;;;10.48;2.42;;;9.40;99.90;;;;;;12403912;28;20039;-82
2021/04/22 09:16:39;;;;;;;18.77;2.97;;;9.00;99.90;;;;;;12378915;28;20077;-81
2021/04/22 09:22:44;;;;;;;15.30;2.60;;;8.50;99.90;;;;;;12392390;28;20092;-82
2021/04/22 09:28:46;;;;;;;11.98;2.75;;;9.00;99.90;;;;;;12387107;28;20093;-81
2021/04/22 09:34:52;;;;;;;15.25;3.45;;;9.10;99.90;;;;;;12390546;28;20050;-81
2021/04/22 09:40:53;;;;;;;12.93;2.72;;;8.90;99.90;;;;;;12416033;28;20070;-83
2021/04/22 09:47:23;;;;;;;21.42;2.95;;;9.70;99.90;;;;;;12399205;28;20601;-81
2021/04/22 09:53:26;;;;;;;20.63;3.53;;;9.80;99.90;;;;;;12386637;28;20050;-81
2021/04/22 09:59:28;;;;;;;8.88;2.55;;;9.20;99.90;;;;;;12399012;28;20086;-81
2021/04/22 10:05:34;;;;;;;10.02;2.60;;;9.40;99.90;;;;;;12400640;28;20034;-81
2021/04/22 10:11:50;;;;;;;15.73;3.38;;;10.20;99.90;;;;;;12402821;28;20110;-81
2021/04/22 10:17:56;;;;;;;8.20;2.80;;;10.20;99.90;;;;;;12400368;28;20057;-82
2021/04/22 10:24:05;;;;;;;11.80;3.10;;;9.90;99.90;;;;;;12404972;28;20042;-81
2021/04/22 10:30:10;;;;;;;10.93;3.05;;;9.90;99.90;;;;;;12411335;28;20050;-80
2021/04/22 10:36:12;;;;;;;12.10;2.85;;;10.00;99.90;;;;;;12384114;28;20099;-81
2021/04/22 10:42:16;;;;;;;11.75;2.90;;;10.40;99.90;;;;;;12395295;28;20442;-83
2021/04/22 10:48:17;;;;;;;12.50;2.50;;;10.40;99.90;;;;;;12390661;28;20100;-82
2021/04/22 10:54:19;;;;;;;13.85;2.97;;;10.80;99.90;;;;;;12408991;28;20081;-81
2021/04/22 11:00:24;;;;;;;9.55;2.88;;;10.70;99.90;;;;;;12392750;28;20046;-83
2021/04/22 11:06:31;;;;;;;;;;;10.20;99.90;;;;;;12398921;28;20047;-84
2021/04/22 11:12:32;;;;;;;10.90;2.65;;;10.10;99.90;;;;;;12408513;28;19921;-81
2021/04/22 11:18:41;;;;;;;14.68;3.38;;;10.70;99.90;;;;;;12398670;28;20050;-82
2021/04/22 11:24:54;;;;;;;9.73;2.80;;;11.50;99.90;;;;;;12398300;28;20391;-82
2021/04/22 11:31:09;;;;;;;13.30;3.83;;;11.40;99.90;;;;;;12407855;28;20194;-82
2021/04/22 11:37:17;;;;;;;8.90;2.90;;;11.00;99.90;;;;;;12400427;28;20203;-81
2021/04/22 11:43:30;;;;;;;12.18;3.03;;;10.90;99.90;;;;;;12397860;28;20038;-82
2021/04/22 11:49:32;;;;;;;9.23;3.00;;;11.70;99.90;;;;;;12392617;28;20541;-82
2021/04/22 11:55:36;;;;;;;9.13;2.85;;;11.60;99.90;;;;;;12395839;28;20061;-82
2021/04/22 12:01:38;;;;;;;;;;;11.50;99.90;;;;;;12410512;28;20415;-82
2021/04/22 12:07:39;;;;;;;11.75;3.10;;;11.30;99.90;;;;;;12398151;28;19991;-82
2021/04/22 12:13:41;;;;;;;9.57;2.72;;;11.30;99.90;;;;;;12391756;28;20050;-82
2021/04/22 12:19:44;;;;;;;8.95;2.65;;;11.40;99.90;;;;;;12410818;28;20092;-82
2021/04/22 12:25:45;;;;;;;12.25;2.80;;;11.80;99.90;;;;;;12393461;28;20735;-82
2021/04/22 12:31:48;;;;;;;9.65;2.50;;;12.10;99.90;;;;;;12385789;28;20042;-82
2021/04/22 12:37:50;;;;;;;10.38;2.72;;;12.40;99.90;;;;;;12403366;28;20053;-82
2021/04/22 12:43:51;;;;;;;11.43;3.10;;;12.20;99.90;;;;;;12394209;28;20891;-82
2021/04/22 12:49:54;;;;;;;10.23;2.88;;;12.10;99.90;;;;;;12387355;28;20050;-82
2021/04/22 12:56:02;;;;;;;11.68;2.85;;;11.90;99.90;;;;;;12390098;28;20122;-82
2021/04/22 13:02:10;;;;;;;8.32;2.63;;;12.40;99.90;;;;;;12410188;28;20050;-82
2021/04/22 13:08:18;;;;;;;8.60;2.55;;;12.90;99.90;;;;;;12390909;28;20053;-83
2021/04/22 13:14:20;;;;;;;8.48;2.42;;;12.80;99.90;;;;;;12390580;28;20786;-81
2021/04/22 13:20:24;;;;;;;8.00;2.05;;;11.80;99.90;;;;;;12396440;28;20073;-82
2021/04/22 13:26:31;;;;;;;6.93;2.35;;;12.20;99.90;;;;;;12403784;28;20173;-82
2021/04/22 13:32:33;;;;;;;7.72;2.45;;;12.50;99.90;;;;;;12418837;28;20046;-82
2021/04/22 13:38:35;;;;;;;9.65;2.13;;;12.30;99.90;;;;;;12419141;28;20046;-82
2021/04/22 13:44:39;;;;;;;6.57;2.25;;;12.30;99.90;;;;;;12398136;28;20146;-82
2021/04/22 13:50:40;;;;;;;13.73;2.57;;;12.70;99.90;;;;;;12396710;28;20065;-82
2021/04/22 13:56:44;;;;;;;12.20;3.13;;;12.70;99.90;;;;;;12401883;28;20057;-82
2021/04/22 14:02:50;;;;;;;6.45;2.35;;;12.10;99.90;;;;;;12408734;28;20133;-82
2021/04/22 14:08:57;;;;;;;7.95;2.63;;;12.60;99.90;;;;;;12418513;28;20049;-82
2021/04/22 14:14:59;;;;;;;12.52;3.00;;;12.20;99.90;;;;;;12401282;28;20091;-82
2021/04/22 14:21:02;;;;;;;12.48;3.05;;;11.80;99.90;;;;;;12414586;28;20124;-82
2021/04/22 14:27:05;;;;;;;10.07;2.80;;;11.80;99.90;;;;;;12414962;28;20177;-81
2021/04/22 14:33:07;;;;;;;5.75;2.40;;;11.60;99.90;;;;;;12401445;28;20049;-83
2021/04/22 14:39:10;;;;;;;6.80;2.70;;;11.60;99.90;;;;;;12401017;28;20097;-81
2021/04/22 14:45:12;;;;;;;12.30;3.10;;;11.40;99.90;;;;;;12400764;28;20065;-81
2021/04/22 14:51:13;;;;;;;13.13;2.85;;;11.50;99.90;;;;;;12396504;28;20038;-81
2021/04/22 14:57:15;;;;;;;10.10;3.35;;;11.60;99.90;;;;;;12398061;28;20431;-81
2021/04/22 15:03:16;;;;;;;9.00;3.10;;;11.60;99.90;;;;;;12401323;28;20489;-81
2021/04/22 15:09:18;;;;;;;12.13;3.35;;;11.50;99.90;;;;;;12391265;28;20046;-82
2021/04/22 15:15:19;;;;;;;15.07;3.47;;;11.40;99.90;;;;;;12397029;28;20049;-81
2021/04/22 15:21:21;;;;;;;9.63;3.28;;;11.30;99.90;;;;;;12382801;28;20834;-81
2021/04/22 15:27:22;;;;;;;11.60;3.28;;;11.60;99.90;;;;;;12396023;28;20593;-82
2021/04/22 15:33:24;;;;;;;11.32;3.08;;;11.70;99.90;;;;;;12397158;28;20046;-82
2021/04/22 15:39:25;;;;;;;14.75;3.25;;;12.50;99.90;;;;;;12395792;28;20570;-81
2021/04/22 15:45:29;;;;;;;12.20;3.17;;;12.10;99.90;;;;;;12395601;28;20132;-81
2021/04/22 15:51:35;;;;;;;7.63;2.30;;;11.60;99.90;;;;;;12392905;28;20176;-81
2021/04/22 15:57:36;;;;;;;10.07;3.63;;;11.50;99.90;;;;;;12408551;28;20046;-81
2021/04/22 16:03:37;;;;;;;9.52;2.72;;;11.40;99.90;;;;;;12390317;28;20038;-82
2021/04/22 16:09:39;;;;;;;13.10;2.90;;;11.80;99.90;;;;;;12390854;28;20505;-82
2021/04/22 16:15:41;;;;;;;10.82;3.00;;;13.00;99.90;;;;;;12390237;28;20460;-81
2021/04/22 16:21:42;;;;;;;8.50;2.35;;;13.70;99.90;;;;;;12391786;28;20140;-82
2021/04/22 16:27:44;;;;;;;7.50;2.70;;;13.90;99.90;;;;;;12406566;28;20072;-84
2021/04/22 16:33:52;;;;;;;10.63;2.33;;;13.80;99.90;;;;;;12392000;28;20042;-82
2021/04/22 16:39:53;;;;;;;7.68;2.47;;;13.90;99.90;;;;;;12385924;28;20137;-82
2021/04/22 16:45:55;;;;;;;11.25;3.47;;;14.20;99.90;;;;;;12409126;28;20037;-82
2021/04/22 16:51:56;;;;;;;7.55;2.65;;;14.40;99.90;;;;;;12389045;28;20084;-81
2021/04/22 16:57:58;;;;;;;9.25;2.72;;;14.70;99.90;;;;;;12412299;28;20054;-82
2021/04/22 17:03:59;;;;;;;6.63;2.42;;;14.40;99.90;;;;;;12437368;28;20047;-82
2021/04/22 17:10:00;;;;;;;9.35;2.20;;;13.80;99.90;;;;;;12434945;28;20077;-81
2021/04/22 17:16:02;;;;;;;10.40;2.70;;;13.80;99.90;;;;;;12429791;28;20030;-82
2021/04/22 17:22:04;;;;;;;8.00;2.78;;;13.40;99.90;;;;;;12430824;28;20047;-81
2021/04/22 17:28:05;;;;;;;12.68;3.35;;;13.30;99.90;;;;;;12418813;28;20113;-82
2021/04/22 17:34:06;;;;;;;9.50;2.85;;;13.00;99.90;;;;;;12385729;28;20128;-82
2021/04/22 17:40:10;;;;;;;7.22;2.75;;;11.80;99.90;;;;;;12402554;28;20057;-81
2021/04/22 17:46:11;;;;;;;10.68;2.85;;;11.50;99.90;;;;;;12375805;28;20133;-81
2021/04/22 17:52:12;;;;;;;9.40;2.22;;;11.30;99.90;;;;;;12398006;28;20058;-81
2021/04/22 17:58:15;;;;;;;7.78;2.88;;;10.60;99.90;;;;;;12376677;28;20054;-81
2021/04/22 18:04:20;;;;;;;7.45;2.72;;;9.90;99.90;;;;;;12389406;28;20056;-81
2021/04/22 18:10:24;;;;;;;9.07;2.88;;;9.60;99.90;;;;;;12404042;28;20082;-81
2021/04/22 18:16:26;;;;;;;8.27;2.63;;;9.40;99.90;;;;;;12391582;28;20110;-81
2021/04/22 18:22:27;;;;;;;8.90;3.08;;;9.30;99.90;;;;;;12391544;28;20069;-81
2021/04/22 18:28:30;;;;;;;7.15;2.60;;;9.20;99.90;;;;;;12401514;28;20046;-81
2021/04/22 18:34:31;;;;;;;9.68;3.25;;;9.20;99.90;;;;;;12387794;28;20046;-81
2021/04/22 18:40:33;;;;;;;10.90;2.70;;;9.00;99.90;;;;;;12386969;28;20062;-80
2021/04/22 18:46:34;;;;;;;9.93;2.67;;;8.80;99.90;;;;;;12389566;28;20208;-81
2021/04/22 18:52:37;;;;;;;14.40;2.90;;;8.60;99.90;;;;;;12390051;28;20513;-80
2021/04/22 18:58:38;;;;;;;12.10;2.67;;;8.40;99.90;;;;;;12388721;28;20062;-81
2021/04/22 19:04:40;;;;;;;12.70;2.33;;;8.30;99.90;;;;;;12382662;28;20046;-80
2021/04/22 19:10:41;;;;;;;12.70;2.50;;;8.10;99.90;;;;;;12384887;28;20076;-80
2021/04/22 19:16:44;;;;;;;13.82;2.67;;;8.10;99.90;;;;;;12408254;28;20054;-80
2021/04/22 19:22:46;;;;;;;5.93;2.30;;;8.00;99.90;;;;;;12402029;28;20045;-80
2021/04/22 19:28:48;;;;;;;8.93;2.25;;;7.80;99.90;;;;;;12392391;28;20106;-81
2021/04/22 19:34:50;;;;;;;10.27;2.92;;;7.80;99.90;;;;;;12402607;28;20042;-80
2021/04/22 19:40:53;;;;;;;9.70;2.58;;;7.70;99.90;;;;;;12387038;28;20038;-80
2021/04/22 19:46:55;;;;;;;6.93;2.50;;;7.70;99.90;;;;;;12387548;28;20042;-80
2021/04/22 19:52:57;;;;;;;6.10;2.83;;;7.40;99.90;;;;;;12385524;28;20050;-80
2021/04/22 19:58:58;;;;;;;13.52;2.58;;;7.30;99.90;;;;;;12386589;28;20046;-80
2021/04/22 20:04:59;;;;;;;10.35;2.60;;;7.30;99.90;;;;;;12402293;28;20092;-80
2021/04/22 20:11:01;;;;;;;8.65;2.53;;;7.20;99.90;;;;;;12380109;28;20050;-80
2021/04/22 20:17:02;;;;;;;8.07;2.60;;;7.20;99.90;;;;;;12389429;28;20058;-80
2021/04/22 20:23:04;;;;;;;13.43;2.75;;;7.20;99.90;;;;;;12388332;28;20529;-80
2021/04/22 20:29:06;;;;;;;19.17;3.00;;;7.10;99.90;;;;;;12386266;28;20545;-80
2021/04/22 20:35:09;;;;;;;8.75;2.40;;;7.10;99.90;;;;;;12388545;28;20087;-80
2021/04/22 20:41:12;;;;;;;7.82;2.70;;;7.00;99.90;;;;;;12386831;28;20042;-80
2021/04/22 20:47:14;;;;;;;10.25;2.72;;;6.90;99.90;;;;;;12380714;28;20374;-80
2021/04/22 20:53:15;;;;;;;11.38;3.17;;;6.80;99.90;;;;;;12382190;28;20046;-80
2021/04/22 20:59:21;;;;;;;12.30;2.90;;;6.60;99.90;;;;;;12383065;28;20046;-80
2021/04/22 21:05:25;;;;;;;10.48;3.20;;;6.50;99.90;;;;;;12394510;28;20495;-80
2021/04/22 21:11:57;;;;;;;11.30;3.33;;;6.50;99.90;;;;;;12381762;28;20558;-80
2021/04/22 21:18:00;;;;;;;11.75;3.47;;;6.30;99.90;;;;;;12378598;28;20145;-80
2021/04/22 21:24:03;;;;;;;16.55;3.72;;;6.30;99.90;;;;;;12389264;28;20039;-81
2021/04/22 21:30:06;;;;;;;8.27;2.90;;;6.30;99.90;;;;;;12386181;28;20065;-80
2021/04/22 21:36:08;;;;;;;14.93;3.65;;;6.20;99.90;;;;;;12402557;28;20132;-80
2021/04/22 21:42:11;;;;;;;11.18;3.47;;;6.20;99.90;;;;;;12398493;28;20100;-80
2021/04/22 21:48:12;;;;;;;9.88;3.65;;;5.90;99.90;;;;;;12400248;28;20096;-80
2021/04/22 21:54:14;;;;;;;10.45;3.55;;;5.80;99.90;;;;;;12391037;28;20047;-80
2021/04/22 22:00:21;;;;;;;9.27;3.40;;;5.70;99.90;;;;;;12392500;28;20082;-80
2021/04/22 22:06:22;;;;;;;8.20;3.75;;;5.70;99.90;;;;;;12390627;28;20456;-80
2021/04/22 22:12:24;;;;;;;14.57;3.90;;;5.60;99.90;;;;;;12387829;28;20041;-80
2021/04/22 22:18:25;;;;;;;11.05;4.30;;;5.50;99.90;;;;;;12385379;28;20596;-80
2021/04/22 22:24:30;;;;;;;9.50;4.03;;;5.50;99.90;;;;;;12389459;28;20046;-80
2021/04/22 22:30:39;;;;;;;13.80;4.07;;;5.40;99.90;;;;;;12392666;28;20103;-80
2021/04/22 22:36:45;;;;;;;13.02;4.70;;;5.40;99.90;;;;;;12407260;28;20503;-80
2021/04/22 22:42:47;;;;;;;15.02;5.05;;;5.30;99.90;;;;;;12392187;28;20046;-80
2021/04/22 22:48:48;;;;;;;15.73;5.05;;;5.30;99.90;;;;;;12386526;28;20054;-80
2021/04/22 22:54:50;;;;;;;12.63;4.40;;;5.30;99.90;;;;;;12406155;28;20048;-80
2021/04/22 23:00:53;;;;;;;16.45;5.18;;;5.20;99.90;;;;;;12392317;28;20092;-80
2021/04/22 23:06:54;;;;;;;14.07;5.57;;;5.20;99.90;;;;;;12390777;28;20048;-80
2021/04/22 23:12:56;;;;;;;17.40;5.28;;;5.10;99.90;;;;;;12387060;28;20065;-80
2021/04/22 23:18:58;;;;;;;13.98;5.75;;;5.00;99.90;;;;;;12390376;28;20057;-80
2021/04/22 23:25:00;;;;;;;15.88;5.30;;;5.10;99.90;;;;;;12390841;28;20062;-80
2021/04/22 23:31:02;;;;;;;13.60;5.22;;;5.00;99.90;;;;;;12393870;28;20042;-80
2021/04/22 23:37:04;;;;;;;13.35;5.82;;;5.00;99.90;;;;;;12393620;28;20050;-80
2021/04/22 23:43:05;;;;;;;13.80;5.35;;;5.00;99.90;;;;;;12396409;28;20085;-80
2021/04/22 23:49:07;;;;;;;16.80;6.03;;;5.10;99.90;;;;;;12392457;28;20471;-80
2021/04/22 23:55:14;;;;;;;15.32;5.78;;;5.30;99.90;;;;;;12383433;28;20065;-80
